sensor_id;sensor_type;location;lat;lon;timestamp;pressure;altitude;pressure_sealevel;temperature;humidity
41800;BME280;27468;47.460;19.034;2024-01-25T00:00:54;100706.78;;;6.69;82.96
41800;BME280;27468;47.460;19.034;2024-01-25T00:03:20;100671.88;;;6.89;80.69
41800;BME280;27468;47.460;19.034;2024-01-25T00:05:46;100653.47;;;7.06;78.12
41800;BME280;27468;47.460;19.034;2024-01-25T00:08:12;100635.97;;;7.17;76.71
41800;BME280;27468;47.460;19.034;2024-01-25T00:10:37;100634.22;;;7.24;76.28
41800;BME280;27468;47.460;19.034;2024-01-25T00:13:03;100659.56;;;7.34;76.28
41800;BME280;27468;47.460;19.034;2024-01-25T00:15:28;100652.59;;;7.18;77.14
41800;BME280;27468;47.460;19.034;2024-01-25T00:17:53;100662.19;;;7.26;76.69
41800;BME280;27468;47.460;19.034;2024-01-25T00:20:19;100672.69;;;7.22;77.44
41800;BME280;27468;47.460;19.034;2024-01-25T00:22:44;100637.75;;;7.12;76.43
41800;BME280;27468;47.460;19.034;2024-01-25T00:25:10;100666.56;;;7.18;77.04
41800;BME280;27468;47.460;19.034;2024-01-25T00:27:35;100681.44;;;7.07;77.79
41800;BME280;27468;47.460;19.034;2024-01-25T00:30:01;100698.03;;;7.26;77.07
41800;BME280;27468;47.460;19.034;2024-01-25T00:32:26;100663.09;;;7.12;77.23
41800;BME280;27468;47.460;19.034;2024-01-25T00:34:52;100655.22;;;7.16;76.42
41800;BME280;27468;47.460;19.034;2024-01-25T00:37:17;100688.41;;;7.31;75.88
41800;BME280;27468;47.460;19.034;2024-01-25T00:39:43;100683.13;;;7.46;75.64
41800;BME280;27468;47.460;19.034;2024-01-25T00:42:12;100637.72;;;7.15;75.78
41800;BME280;27468;47.460;19.034;2024-01-25T00:44:38;100687.53;;;7.31;75.75
41800;BME280;27468;47.460;19.034;2024-01-25T00:47:03;100684.91;;;7.24;76.30
41800;BME280;27468;47.460;19.034;2024-01-25T00:49:29;100689.28;;;7.42;75.10
41800;BME280;27468;47.460;19.034;2024-01-25T00:51:58;100659.56;;;7.29;74.07
41800;BME280;27468;47.460;19.034;2024-01-25T00:54:24;100672.66;;;7.33;74.81
41800;BME280;27468;47.460;19.034;2024-01-25T00:56:50;100649.97;;;7.10;74.51
41800;BME280;27468;47.460;19.034;2024-01-25T00:59:18;100669.16;;;7.34;74.34
41800;BME280;27468;47.460;19.034;2024-01-25T01:01:46;100635.09;;;7.21;72.95
41800;BME280;27468;47.460;19.034;2024-01-25T01:04:11;100654.28;;;7.49;71.23
41800;BME280;27468;47.460;19.034;2024-01-25T01:06:37;100665.56;;;7.60;70.91
41800;BME280;27468;47.460;19.034;2024-01-25T01:09:02;100614.94;;;7.42;70.70
41800;BME280;27468;47.460;19.034;2024-01-25T01:11:29;100683.03;;;7.75;70.25
41800;BME280;27468;47.460;19.034;2024-01-25T01:13:54;100635.84;;;7.63;70.20
41800;BME280;27468;47.460;19.034;2024-01-25T01:16:20;100660.28;;;7.74;69.57
41800;BME280;27468;47.460;19.034;2024-01-25T01:18:46;100629.72;;;7.58;69.68
41800;BME280;27468;47.460;19.034;2024-01-25T01:21:11;100643.69;;;7.66;69.26
41800;BME280;27468;47.460;19.034;2024-01-25T01:23:37;100670.75;;;7.86;68.60
41800;BME280;27468;47.460;19.034;2024-01-25T01:26:04;100654.13;;;7.81;68.36
41800;BME280;27468;47.460;19.034;2024-01-25T01:28:29;100670.72;;;7.91;68.81
41800;BME280;27468;47.460;19.034;2024-01-25T01:30:55;100627.06;;;7.67;69.57
41800;BME280;27468;47.460;19.034;2024-01-25T01:33:20;100671.66;;;7.76;69.74
41800;BME280;27468;47.460;19.034;2024-01-25T01:35:45;100635.81;;;7.68;70.01
41800;BME280;27468;47.460;19.034;2024-01-25T01:38:11;100646.31;;;7.69;70.21
41800;BME280;27468;47.460;19.034;2024-01-25T01:40:36;100611.41;;;7.50;70.62
41800;BME280;27468;47.460;19.034;2024-01-25T01:43:02;100655.88;;;7.82;70.10
41800;BME280;27468;47.460;19.034;2024-01-25T01:45:28;100634.91;;;7.73;70.04
41800;BME280;27468;47.460;19.034;2024-01-25T01:47:55;100641.00;;;7.83;69.72
41800;BME280;27468;47.460;19.034;2024-01-25T01:50:21;100624.44;;;7.72;69.80
41800;BME280;27468;47.460;19.034;2024-01-25T01:52:46;100649.78;;;7.77;69.76
41800;BME280;27468;47.460;19.034;2024-01-25T01:55:13;100608.72;;;7.67;68.95
41800;BME280;27468;47.460;19.034;2024-01-25T01:57:38;100618.31;;;7.67;68.72
41800;BME280;27468;47.460;19.034;2024-01-25T02:00:08;100617.31;;;7.97;67.19
41800;BME280;27468;47.460;19.034;2024-01-25T02:02:34;100628.66;;;8.03;66.55
41800;BME280;27468;47.460;19.034;2024-01-25T02:05:00;100625.16;;;8.01;67.03
41800;BME280;27468;47.460;19.034;2024-01-25T02:07:26;100615.56;;;7.95;67.17
41800;BME280;27468;47.460;19.034;2024-01-25T02:09:51;100631.22;;;8.12;66.47
41800;BME280;27468;47.460;19.034;2024-01-25T02:12:17;100608.53;;;8.01;66.35
41800;BME280;27468;47.460;19.034;2024-01-25T02:14:42;100595.38;;;8.07;64.88
41800;BME280;27468;47.460;19.034;2024-01-25T02:17:08;100597.91;;;8.19;64.60
41800;BME280;27468;47.460;19.034;2024-01-25T02:19:33;100590.91;;;8.18;65.36
41800;BME280;27468;47.460;19.034;2024-01-25T02:21:58;100576.13;;;8.06;65.74
41800;BME280;27468;47.460;19.034;2024-01-25T02:24:24;100596.09;;;8.25;64.99
41800;BME280;27468;47.460;19.034;2024-01-25T02:26:49;100585.63;;;8.21;64.71
41800;BME280;27468;47.460;19.034;2024-01-25T02:29:15;100608.28;;;8.42;64.24
41800;BME280;27468;47.460;19.034;2024-01-25T02:31:40;100588.19;;;8.35;63.58
41800;BME280;27468;47.460;19.034;2024-01-25T02:34:06;100590.75;;;8.45;63.94
41800;BME280;27468;47.460;19.034;2024-01-25T02:36:31;100589.03;;;8.41;64.20
41800;BME280;27468;47.460;19.034;2024-01-25T02:38:57;100553.22;;;8.25;64.48
41800;BME280;27468;47.460;19.034;2024-01-25T02:41:22;100568.09;;;8.23;64.85
41800;BME280;27468;47.460;19.034;2024-01-25T02:43:48;100608.28;;;8.43;64.58
41800;BME280;27468;47.460;19.034;2024-01-25T02:46:13;100597.78;;;8.42;65.00
41800;BME280;27468;47.460;19.034;2024-01-25T02:48:38;100582.94;;;8.35;64.90
41800;BME280;27468;47.460;19.034;2024-01-25T02:51:04;100601.28;;;8.41;65.30
41800;BME280;27468;47.460;19.034;2024-01-25T02:53:29;100607.50;;;8.24;65.63
41800;BME280;27468;47.460;19.034;2024-01-25T02:55:55;100576.88;;;8.20;65.73
41800;BME280;27468;47.460;19.034;2024-01-25T02:58:20;100604.72;;;8.52;65.41
41800;BME280;27468;47.460;19.034;2024-01-25T03:00:46;100575.06;;;8.28;65.85
41800;BME280;27468;47.460;19.034;2024-01-25T03:03:11;100598.72;;;8.35;66.39
41800;BME280;27468;47.460;19.034;2024-01-25T03:05:36;100557.59;;;8.24;66.87
41800;BME280;27468;47.460;19.034;2024-01-25T03:08:02;100580.34;;;8.25;67.25
41800;BME280;27468;47.460;19.034;2024-01-25T03:10:27;100596.06;;;8.32;68.06
41800;BME280;27468;47.460;19.034;2024-01-25T03:12:52;100597.06;;;8.14;68.30
41800;BME280;27468;47.460;19.034;2024-01-25T03:15:18;100608.44;;;8.16;68.85
41800;BME280;27468;47.460;19.034;2024-01-25T03:17:43;100621.50;;;8.26;68.17
41800;BME280;27468;47.460;19.034;2024-01-25T03:20:09;100619.72;;;8.35;68.34
41800;BME280;27468;47.460;19.034;2024-01-25T03:22:35;100612.78;;;8.17;68.42
41800;BME280;27468;47.460;19.034;2024-01-25T03:25:00;100603.16;;;8.20;68.96
41800;BME280;27468;47.460;19.034;2024-01-25T03:27:25;100601.44;;;8.13;68.93
41800;BME280;27468;47.460;19.034;2024-01-25T03:29:51;100622.38;;;8.27;69.31
41800;BME280;27468;47.460;19.034;2024-01-25T03:32:16;100616.25;;;8.25;69.29
41800;BME280;27468;47.460;19.034;2024-01-25T03:34:41;100595.31;;;8.14;69.57
41800;BME280;27468;47.460;19.034;2024-01-25T03:37:07;100612.78;;;8.17;69.92
41800;BME280;27468;47.460;19.034;2024-01-25T03:39:32;100563.97;;;7.91;70.25
41800;BME280;27468;47.460;19.034;2024-01-25T03:41:57;100570.94;;;7.94;70.59
41800;BME280;27468;47.460;19.034;2024-01-25T03:44:23;100565.72;;;7.89;71.04
41800;BME280;27468;47.460;19.034;2024-01-25T03:46:49;100600.56;;;8.13;71.02
41800;BME280;27468;47.460;19.034;2024-01-25T03:49:14;100586.72;;;7.91;71.33
41800;BME280;27468;47.460;19.034;2024-01-25T03:51:39;100579.72;;;7.91;71.50
41800;BME280;27468;47.460;19.034;2024-01-25T03:54:05;100613.78;;;8.02;71.29
41800;BME280;27468;47.460;19.034;2024-01-25T03:56:30;100576.22;;;7.91;70.60
41800;BME280;27468;47.460;19.034;2024-01-25T03:58:55;100576.13;;;8.05;69.66
41800;BME280;27468;47.460;19.034;2024-01-25T04:01:21;100581.25;;;8.20;69.25
41800;BME280;27468;47.460;19.034;2024-01-25T04:03:46;100562.00;;;8.18;68.11
41800;BME280;27468;47.460;19.034;2024-01-25T04:06:11;100610.94;;;8.37;67.43
41800;BME280;27468;47.460;19.034;2024-01-25T04:08:37;100593.44;;;8.32;67.31
41800;BME280;27468;47.460;19.034;2024-01-25T04:11:02;100610.03;;;8.43;67.32
41800;BME280;27468;47.460;19.034;2024-01-25T04:13:27;100575.06;;;8.32;66.25
41800;BME280;27468;47.460;19.034;2024-01-25T04:15:53;100569.84;;;8.27;66.20
41800;BME280;27468;47.460;19.034;2024-01-25T04:18:18;100557.50;;;8.40;66.37
41800;BME280;27468;47.460;19.034;2024-01-25T04:20:43;100565.34;;;8.44;66.13
41800;BME280;27468;47.460;19.034;2024-01-25T04:23:09;100522.56;;;8.24;66.32
41800;BME280;27468;47.460;19.034;2024-01-25T04:25:34;100592.44;;;8.52;66.85
41800;BME280;27468;47.460;19.034;2024-01-25T04:28:00;100594.19;;;8.52;66.68
41800;BME280;27468;47.460;19.034;2024-01-25T04:30:25;100549.69;;;8.29;66.75
41800;BME280;27468;47.460;19.034;2024-01-25T04:32:51;100581.97;;;8.49;66.45
41800;BME280;27468;47.460;19.034;2024-01-25T04:35:16;100581.19;;;8.37;66.41
41800;BME280;27468;47.460;19.034;2024-01-25T04:37:41;100599.50;;;8.44;67.03
41800;BME280;27468;47.460;19.034;2024-01-25T04:40:07;100596.06;;;8.36;67.37
41800;BME280;27468;47.460;19.034;2024-01-25T04:42:33;100598.66;;;8.44;68.01
41800;BME280;27468;47.460;19.034;2024-01-25T04:44:58;100612.72;;;8.37;68.60
41800;BME280;27468;47.460;19.034;2024-01-25T04:47:24;100608.38;;;8.23;69.46
41800;BME280;27468;47.460;19.034;2024-01-25T04:49:50;100598.72;;;8.33;68.76
41800;BME280;27468;47.460;19.034;2024-01-25T04:52:15;100627.56;;;8.41;68.79
41800;BME280;27468;47.460;19.034;2024-01-25T04:54:41;100613.66;;;8.20;69.37
41800;BME280;27468;47.460;19.034;2024-01-25T04:57:06;100583.91;;;8.15;69.25
41800;BME280;27468;47.460;19.034;2024-01-25T04:59:35;100615.44;;;8.15;69.68
41800;BME280;27468;47.460;19.034;2024-01-25T05:02:01;100615.38;;;8.26;69.43
41800;BME280;27468;47.460;19.034;2024-01-25T05:04:28;100631.09;;;8.38;69.42
41800;BME280;27468;47.460;19.034;2024-01-25T05:06:54;100623.25;;;8.26;69.97
41800;BME280;27468;47.460;19.034;2024-01-25T05:09:20;100608.34;;;8.29;69.50
41800;BME280;27468;47.460;19.034;2024-01-25T05:11:45;100601.44;;;8.12;69.75
41800;BME280;27468;47.460;19.034;2024-01-25T05:14:11;100602.25;;;8.21;69.62
41800;BME280;27468;47.460;19.034;2024-01-25T05:16:36;100598.84;;;8.09;69.70
41800;BME280;27468;47.460;19.034;2024-01-25T05:19:01;100577.91;;;8.00;69.60
41800;BME280;27468;47.460;19.034;2024-01-25T05:21:27;100621.56;;;8.13;70.12
41800;BME280;27468;47.460;19.034;2024-01-25T05:23:52;100581.34;;;8.09;69.29
41800;BME280;27468;47.460;19.034;2024-01-25T05:26:17;100609.28;;;8.19;69.45
41800;BME280;27468;47.460;19.034;2024-01-25T05:28:44;100615.38;;;8.24;68.82
41800;BME280;27468;47.460;19.034;2024-01-25T05:31:09;100607.50;;;8.24;68.88
41800;BME280;27468;47.460;19.034;2024-01-25T05:33:41;100613.63;;;8.26;68.42
41800;BME280;27468;47.460;19.034;2024-01-25T05:36:08;100617.13;;;8.25;68.80
41800;BME280;27468;47.460;19.034;2024-01-25T05:38:34;100590.19;;;7.98;69.68
41800;BME280;27468;47.460;19.034;2024-01-25T05:40:59;100596.28;;;8.04;69.80
41800;BME280;27468;47.460;19.034;2024-01-25T05:43:25;100621.56;;;8.13;70.34
41800;BME280;27468;47.460;19.034;2024-01-25T05:45:50;100637.31;;;8.13;70.76
41800;BME280;27468;47.460;19.034;2024-01-25T05:48:16;100623.41;;;8.03;71.14
41800;BME280;27468;47.460;19.034;2024-01-25T05:50:41;100630.44;;;8.01;71.30
41800;BME280;27468;47.460;19.034;2024-01-25T05:53:06;100642.59;;;8.11;71.52
41800;BME280;27468;47.460;19.034;2024-01-25T05:55:32;100615.56;;;7.95;71.48
41800;BME280;27468;47.460;19.034;2024-01-25T05:57:57;100600.72;;;7.93;71.73
41800;BME280;27468;47.460;19.034;2024-01-25T06:00:22;100643.41;;;8.19;71.77
41800;BME280;27468;47.460;19.034;2024-01-25T06:02:48;100598.13;;;7.85;72.39
41800;BME280;27468;47.460;19.034;2024-01-25T06:05:13;100643.53;;;8.07;72.25
41800;BME280;27468;47.460;19.034;2024-01-25T06:07:39;100626.03;;;8.05;72.46
41800;BME280;27468;47.460;19.034;2024-01-25T06:10:05;100631.25;;;8.08;72.56
41800;BME280;27468;47.460;19.034;2024-01-25T06:12:31;100603.38;;;7.87;72.55
41800;BME280;27468;47.460;19.034;2024-01-25T06:14:56;100645.28;;;8.05;72.87
41800;BME280;27468;47.460;19.034;2024-01-25T06:17:21;100613.84;;;7.90;72.84
41800;BME280;27468;47.460;19.034;2024-01-25T06:19:47;100598.13;;;7.85;72.68
41800;BME280;27468;47.460;19.034;2024-01-25T06:22:12;100603.38;;;7.84;72.98
41800;BME280;27468;47.460;19.034;2024-01-25T06:24:38;100602.50;;;7.85;72.64
41800;BME280;27468;47.460;19.034;2024-01-25T06:27:03;100633.09;;;7.95;72.80
41800;BME280;27468;47.460;19.034;2024-01-25T06:29:29;100593.75;;;7.86;72.64
41800;BME280;27468;47.460;19.034;2024-01-25T06:31:54;100627.81;;;7.98;72.34
41800;BME280;27468;47.460;19.034;2024-01-25T06:34:19;100641.72;;;8.12;72.60
41800;BME280;27468;47.460;19.034;2024-01-25T06:36:45;100598.03;;;8.05;72.59
41800;BME280;27468;47.460;19.034;2024-01-25T06:39:10;100631.28;;;8.06;72.26
41800;BME280;27468;47.460;19.034;2024-01-25T06:41:35;100613.81;;;7.96;72.30
41800;BME280;27468;47.460;19.034;2024-01-25T06:44:01;100636.53;;;8.03;72.67
41800;BME280;27468;47.460;19.034;2024-01-25T06:46:26;100644.41;;;8.06;72.04
41800;BME280;27468;47.460;19.034;2024-01-25T06:48:52;100678.53;;;8.06;71.75
41800;BME280;27468;47.460;19.034;2024-01-25T06:51:17;100651.34;;;8.10;71.20
41800;BME280;27468;47.460;19.034;2024-01-25T06:53:42;100671.53;;;8.08;71.25
41800;BME280;27468;47.460;19.034;2024-01-25T06:56:07;100703.06;;;8.04;71.23
41800;BME280;27468;47.460;19.034;2024-01-25T06:58:33;100652.41;;;7.79;71.05
41800;BME280;27468;47.460;19.034;2024-01-25T07:00:59;100692.59;;;7.90;71.21
41800;BME280;27468;47.460;19.034;2024-01-25T07:03:24;100705.69;;;8.04;69.55
41800;BME280;27468;47.460;19.034;2024-01-25T07:05:49;100694.22;;;8.14;69.51
41800;BME280;27468;47.460;19.034;2024-01-25T07:08:15;100664.53;;;8.06;69.73
41800;BME280;27468;47.460;19.034;2024-01-25T07:10:41;100653.09;;;8.11;69.45
41800;BME280;27468;47.460;19.034;2024-01-25T07:13:07;100649.53;;;8.21;68.82
41800;BME280;27468;47.460;19.034;2024-01-25T07:15:32;100609.44;;;7.95;68.97
41800;BME280;27468;47.460;19.034;2024-01-25T07:17:57;100604.16;;;8.03;68.23
41800;BME280;27468;47.460;19.034;2024-01-25T07:20:23;100626.81;;;8.14;67.91
41800;BME280;27468;47.460;19.034;2024-01-25T07:22:48;100618.06;;;8.15;67.61
41800;BME280;27468;47.460;19.034;2024-01-25T07:25:13;100628.53;;;8.21;67.72
41800;BME280;27468;47.460;19.034;2024-01-25T07:27:39;100605.78;;;8.17;67.31
41800;BME280;27468;47.460;19.034;2024-01-25T07:30:05;100565.66;;;8.00;66.79
41800;BME280;27468;47.460;19.034;2024-01-25T07:32:30;100610.97;;;8.29;66.42
41800;BME280;27468;47.460;19.034;2024-01-25T07:34:57;100597.03;;;8.18;66.35
41800;BME280;27468;47.460;19.034;2024-01-25T07:37:23;100589.16;;;8.15;66.36
41800;BME280;27468;47.460;19.034;2024-01-25T07:39:48;100622.38;;;8.27;65.93
41800;BME280;27468;47.460;19.034;2024-01-25T07:42:13;100582.25;;;8.07;65.98
41800;BME280;27468;47.460;19.034;2024-01-25T07:44:39;100586.56;;;8.11;66.02
41800;BME280;27468;47.460;19.034;2024-01-25T07:47:04;100652.13;;;8.27;66.17
41800;BME280;27468;47.460;19.034;2024-01-25T07:49:30;100625.06;;;8.15;66.53
41800;BME280;27468;47.460;19.034;2024-01-25T07:51:55;100667.88;;;8.29;65.63
41800;BME280;27468;47.460;19.034;2024-01-25T07:54:24;100669.59;;;8.39;64.28
41800;BME280;27468;47.460;19.034;2024-01-25T07:56:49;100667.00;;;8.30;63.79
41800;BME280;27468;47.460;19.034;2024-01-25T07:59:15;100664.38;;;8.38;62.17
41800;BME280;27468;47.460;19.034;2024-01-25T08:01:40;100682.66;;;8.56;60.74
41800;BME280;27468;47.460;19.034;2024-01-25T08:04:06;100671.34;;;8.42;60.96
41800;BME280;27468;47.460;19.034;2024-01-25T08:06:31;100696.63;;;8.59;61.33
41800;BME280;27468;47.460;19.034;2024-01-25T08:08:56;100640.75;;;8.33;59.57
41800;BME280;27468;47.460;19.034;2024-01-25T08:11:22;100682.53;;;8.67;58.64
41800;BME280;27468;47.460;19.034;2024-01-25T08:13:48;100669.47;;;8.62;57.67
41800;BME280;27468;47.460;19.034;2024-01-25T08:16:13;100707.84;;;8.81;57.43
41800;BME280;27468;47.460;19.034;2024-01-25T08:18:48;100724.44;;;8.89;56.71
41800;BME280;27468;47.460;19.034;2024-01-25T08:21:13;100673.66;;;8.83;56.56
41800;BME280;27468;47.460;19.034;2024-01-25T08:23:39;100653.56;;;8.74;57.02
41800;BME280;27468;47.460;19.034;2024-01-25T08:26:05;100671.97;;;8.76;57.73
41800;BME280;27468;47.460;19.034;2024-01-25T08:28:34;100689.34;;;8.92;58.90
41800;BME280;27468;47.460;19.034;2024-01-25T08:31:00;100653.50;;;8.82;58.73
41800;BME280;27468;47.460;19.034;2024-01-25T08:33:25;100654.41;;;8.79;59.62
41800;BME280;27468;47.460;19.034;2024-01-25T08:35:50;100652.66;;;8.80;60.12
41800;BME280;27468;47.460;19.034;2024-01-25T08:38:16;100704.00;;;9.22;58.62
41800;BME280;27468;47.460;19.034;2024-01-25T08:40:41;100695.41;;;9.05;59.08
41800;BME280;27468;47.460;19.034;2024-01-25T08:43:07;100669.19;;;8.96;59.35
41800;BME280;27468;47.460;19.034;2024-01-25T08:45:32;100689.91;;;9.26;59.14
41800;BME280;27468;47.460;19.034;2024-01-25T08:47:57;100696.03;;;9.28;59.18
41800;BME280;27468;47.460;19.034;2024-01-25T08:50:23;100652.44;;;9.06;59.31
41800;BME280;27468;47.460;19.034;2024-01-25T08:52:48;100673.38;;;9.15;58.96
41800;BME280;27468;47.460;19.034;2024-01-25T08:55:14;100680.16;;;9.37;58.70
41800;BME280;27468;47.460;19.034;2024-01-25T08:57:39;100704.66;;;9.44;58.97
41800;BME280;27468;47.460;19.034;2024-01-25T09:00:06;100702.94;;;9.41;58.81
41800;BME280;27468;47.460;19.034;2024-01-25T09:02:38;100680.09;;;9.45;57.12
41800;BME280;27468;47.460;19.034;2024-01-25T09:05:05;100702.78;;;9.55;57.47
41800;BME280;27468;47.460;19.034;2024-01-25T09:07:31;100709.84;;;9.51;57.33
41800;BME280;27468;47.460;19.034;2024-01-25T09:09:56;100717.75;;;9.51;57.04
41800;BME280;27468;47.460;19.034;2024-01-25T09:12:22;100703.69;;;9.52;56.56
41800;BME280;27468;47.460;19.034;2024-01-25T09:14:56;100692.50;;;9.32;56.77
41800;BME280;27468;47.460;19.034;2024-01-25T09:17:22;100727.50;;;9.42;56.14
41800;BME280;27468;47.460;19.034;2024-01-25T09:19:48;100709.91;;;9.44;56.81
41800;BME280;27468;47.460;19.034;2024-01-25T09:22:15;100723.81;;;9.59;56.34
41800;BME280;27468;47.460;19.034;2024-01-25T09:24:42;100763.19;;;9.70;57.05
41800;BME280;27468;47.460;19.034;2024-01-25T09:27:07;100788.63;;;9.71;57.21
41800;BME280;27468;47.460;19.034;2024-01-25T09:29:33;100771.06;;;9.73;56.84
41800;BME280;27468;47.460;19.034;2024-01-25T09:31:58;100768.34;;;9.81;56.36
41800;BME280;27468;47.460;19.034;2024-01-25T09:34:23;100740.53;;;9.54;56.88
41800;BME280;27468;47.460;19.034;2024-01-25T09:36:49;100754.41;;;9.71;56.45
41800;BME280;27468;47.460;19.034;2024-01-25T09:39:14;100737.00;;;9.56;56.99
41800;BME280;27468;47.460;19.034;2024-01-25T09:41:40;100737.88;;;9.55;57.17
41800;BME280;27468;47.460;19.034;2024-01-25T09:44:07;100737.84;;;9.58;57.05
41800;BME280;27468;47.460;19.034;2024-01-25T09:46:33;100769.34;;;9.68;56.92
41800;BME280;27468;47.460;19.034;2024-01-25T09:48:59;100729.91;;;9.63;56.18
41800;BME280;27468;47.460;19.034;2024-01-25T09:51:25;100796.38;;;9.85;56.51
41800;BME280;27468;47.460;19.034;2024-01-25T09:53:53;100774.41;;;9.86;56.76
41800;BME280;27468;47.460;19.034;2024-01-25T09:56:20;100790.16;;;9.92;56.49
41800;BME280;27468;47.460;19.034;2024-01-25T09:58:46;100791.84;;;9.98;55.72
41800;BME280;27468;47.460;19.034;2024-01-25T10:01:14;100741.84;;;9.94;54.76
41800;BME280;27468;47.460;19.034;2024-01-25T10:03:46;100757.59;;;9.98;54.39
41800;BME280;27468;47.460;19.034;2024-01-25T10:06:13;100781.09;;;10.20;53.76
41800;BME280;27468;47.460;19.034;2024-01-25T10:08:38;100744.31;;;10.07;54.03
41800;BME280;27468;47.460;19.034;2024-01-25T10:11:04;100789.91;;;10.13;54.39
41800;BME280;27468;47.460;19.034;2024-01-25T10:13:30;100776.78;;;10.10;54.87
41800;BME280;27468;47.460;19.034;2024-01-25T10:15:57;100770.66;;;10.08;55.19
41800;BME280;27468;47.460;19.034;2024-01-25T10:18:23;100764.59;;;10.02;55.30
41800;BME280;27468;47.460;19.034;2024-01-25T10:20:49;100710.25;;;9.93;54.87
41800;BME280;27468;47.460;19.034;2024-01-25T10:23:14;100744.19;;;10.17;54.56
41800;BME280;27468;47.460;19.034;2024-01-25T10:25:40;100729.47;;;10.01;55.19
41800;BME280;27468;47.460;19.034;2024-01-25T10:28:06;100743.38;;;10.14;54.78
41800;BME280;27468;47.460;19.034;2024-01-25T10:30:32;100707.44;;;10.08;54.71
41800;BME280;27468;47.460;19.034;2024-01-25T10:32:59;100716.28;;;10.01;54.55
41800;BME280;27468;47.460;19.034;2024-01-25T10:35:25;100733.81;;;10.04;54.18
41800;BME280;27468;47.460;19.034;2024-01-25T10:37:51;100743.22;;;10.29;54.14
41800;BME280;27468;47.460;19.034;2024-01-25T10:40:18;100728.47;;;10.11;54.55
41800;BME280;27468;47.460;19.034;2024-01-25T10:42:44;100743.31;;;10.17;54.89
41800;BME280;27468;47.460;19.034;2024-01-25T10:45:10;100727.41;;;10.29;54.30
41800;BME280;27468;47.460;19.034;2024-01-25T10:47:36;100746.69;;;10.31;54.20
41800;BME280;27468;47.460;19.034;2024-01-25T10:50:03;100759.88;;;10.31;54.33
41800;BME280;27468;47.460;19.034;2024-01-25T10:52:29;100717.88;;;10.16;53.85
41800;BME280;27468;47.460;19.034;2024-01-25T10:54:55;100708.31;;;10.09;54.21
41800;BME280;27468;47.460;19.034;2024-01-25T10:57:21;100717.16;;;10.03;54.22
41800;BME280;27468;47.460;19.034;2024-01-25T10:59:47;100724.00;;;10.21;53.25
41800;BME280;27468;47.460;19.034;2024-01-25T11:02:12;100661.03;;;9.98;52.05
41800;BME280;27468;47.460;19.034;2024-01-25T11:04:37;100728.44;;;10.13;52.96
41800;BME280;27468;47.460;19.034;2024-01-25T11:07:07;100739.72;;;10.29;52.60
41800;BME280;27468;47.460;19.034;2024-01-25T11:09:35;100756.47;;;10.21;51.77
41800;BME280;27468;47.460;19.034;2024-01-25T11:12:11;100731.94;;;10.13;51.83
41800;BME280;27468;47.460;19.034;2024-01-25T11:14:37;100742.41;;;10.24;51.80
41800;BME280;27468;47.460;19.034;2024-01-25T11:17:15;100737.19;;;10.19;50.65
41800;BME280;27468;47.460;19.034;2024-01-25T11:19:40;100723.19;;;10.13;51.05
41800;BME280;27468;47.460;19.034;2024-01-25T11:22:06;100711.75;;;10.14;51.31
41800;BME280;27468;47.460;19.034;2024-01-25T11:24:37;100745.81;;;10.32;51.46
41800;BME280;27468;47.460;19.034;2024-01-25T11:27:03;100741.38;;;10.36;51.16
41800;BME280;27468;47.460;19.034;2024-01-25T11:29:30;100691.59;;;10.11;51.18
41800;BME280;27468;47.460;19.034;2024-01-25T11:31:55;100719.53;;;10.26;51.04
41800;BME280;27468;47.460;19.034;2024-01-25T11:34:22;100743.13;;;10.35;51.25
41800;BME280;27468;47.460;19.034;2024-01-25T11:36:47;100710.94;;;10.07;52.25
41800;BME280;27468;47.460;19.034;2024-01-25T11:39:15;100742.41;;;10.24;52.32
41800;BME280;27468;47.460;19.034;2024-01-25T11:41:42;100712.63;;;10.13;52.52
41800;BME280;27468;47.460;19.034;2024-01-25T11:44:09;100693.44;;;10.03;52.89
41800;BME280;27468;47.460;19.034;2024-01-25T11:46:35;100737.13;;;10.24;53.00
41800;BME280;27468;47.460;19.034;2024-01-25T11:49:01;100716.03;;;10.24;52.73
41800;BME280;27468;47.460;19.034;2024-01-25T11:51:27;100731.03;;;10.20;52.51
41800;BME280;27468;47.460;19.034;2024-01-25T11:53:54;100728.25;;;10.31;51.23
41800;BME280;27468;47.460;19.034;2024-01-25T11:56:31;100694.25;;;10.10;51.57
41800;BME280;27468;47.460;19.034;2024-01-25T11:58:57;100723.13;;;10.20;52.12
41800;BME280;27468;47.460;19.034;2024-01-25T12:01:24;100726.66;;;10.16;52.08
41800;BME280;27468;47.460;19.034;2024-01-25T12:03:50;100681.34;;;9.87;52.30
41800;BME280;27468;47.460;19.034;2024-01-25T12:06:17;100715.25;;;10.14;51.90
41800;BME280;27468;47.460;19.034;2024-01-25T12:08:44;100753.84;;;10.21;51.32
41800;BME280;27468;47.460;19.034;2024-01-25T12:11:10;100727.56;;;10.12;51.39
41800;BME280;27468;47.460;19.034;2024-01-25T12:13:38;100788.97;;;10.19;50.88
41800;BME280;27468;47.460;19.034;2024-01-25T12:16:06;100781.00;;;10.27;49.56
41800;BME280;27468;47.460;19.034;2024-01-25T12:18:32;100752.94;;;10.24;49.86
41800;BME280;27468;47.460;19.034;2024-01-25T12:21:00;100726.81;;;10.01;50.38
41800;BME280;27468;47.460;19.034;2024-01-25T12:23:33;100760.88;;;10.21;50.18
41800;BME280;27468;47.460;19.034;2024-01-25T12:26:09;100736.44;;;10.05;50.30
41800;BME280;27468;47.460;19.034;2024-01-25T12:28:36;100762.56;;;10.27;49.59
41800;BME280;27468;47.460;19.034;2024-01-25T12:31:03;100766.03;;;10.32;49.29
41800;BME280;27468;47.460;19.034;2024-01-25T12:33:29;100741.53;;;10.22;49.06
41800;BME280;27468;47.460;19.034;2024-01-25T12:35:55;100753.00;;;10.19;49.24
41800;BME280;27468;47.460;19.034;2024-01-25T12:38:23;100745.00;;;10.25;48.85
41800;BME280;27468;47.460;19.034;2024-01-25T12:40:50;100748.47;;;10.31;49.18